Alden, Wisconsin
Current Conditions -  °F | °C
As of 5:55 PM on Friday 24 Oct 2014 (Local Time) from KRNH Reporting Station
Haze Haze  
Wind Chill: 56°   Ceiling: Unl
Heat Index: 56°   Visibility: 5mi
Dew Point: 55°   Wind: 7mph
Humidity: 94%   Direction: 180°S
Pressure: 29.85"   Gusts: NA
Location:  45.1804°N, 92.551°W
Report Text: KRNH 242255Z AUTO 18006KT 5SM BR CLR 14/13 A2985 RMK AO2 T01350126
Loading
Personal Weather Stations






























Interactive Weather Map New forecast layout! Learn more

10-Day Weather Forecast

Advertisements
Track Severe Weather on mobile